createdAt,value
2017-07-23T00:02:27.274Z,20.10
2017-07-23T00:04:56.280Z,20.00
2017-07-23T00:07:26.006Z,20.00
2017-07-23T00:09:55.004Z,20.00
2017-07-23T00:12:24.080Z,20.10
2017-07-23T00:14:53.809Z,20.20
2017-07-23T00:17:22.784Z,20.20
2017-07-23T00:19:52.540Z,20.30
2017-07-23T00:22:21.525Z,20.30
2017-07-23T00:24:50.485Z,20.20
2017-07-23T00:27:19.455Z,20.00
2017-07-23T00:29:49.186Z,20.20
2017-07-23T00:32:18.213Z,20.20
2017-07-23T00:34:52.427Z,20.00
2017-07-23T00:37:21.417Z,20.10
2017-07-23T00:39:51.083Z,20.10
2017-07-23T00:42:20.898Z,19.90
2017-07-23T00:44:49.887Z,19.90
2017-07-23T00:47:18.873Z,19.90
2017-07-23T00:49:48.617Z,20.00
2017-07-23T00:52:17.596Z,19.90
2017-07-23T00:54:46.625Z,20.10
2017-07-23T00:57:15.595Z,20.10
2017-07-23T00:59:44.641Z,20.00
2017-07-23T01:02:13.610Z,20.20
2017-07-23T01:04:42.583Z,20.30
2017-07-23T01:07:11.570Z,20.30
2017-07-23T01:09:40.536Z,20.30
2017-07-23T01:12:10.290Z,20.30
2017-07-23T01:14:39.369Z,20.30
2017-07-23T01:17:14.387Z,20.20
2017-07-23T01:19:43.348Z,20.20
2017-07-23T01:22:13.112Z,20.30
2017-07-23T01:24:43.290Z,20.40
2017-07-23T01:27:13.110Z,20.30
2017-07-23T01:29:42.076Z,20.30
2017-07-23T01:32:11.134Z,20.40
2017-07-23T01:34:40.121Z,20.40
2017-07-23T01:37:09.090Z,20.40
2017-07-23T01:39:38.069Z,20.50
2017-07-23T01:42:07.056Z,20.50
2017-07-23T01:44:36.790Z,20.40
2017-07-23T01:47:05.760Z,20.50
2017-07-23T01:49:34.875Z,20.50
2017-07-23T01:52:03.823Z,20.50
2017-07-23T01:54:33.598Z,20.40
2017-07-23T01:57:02.552Z,20.30
2017-07-23T01:59:31.521Z,20.40
2017-07-23T02:02:00.476Z,20.60
2017-07-23T02:04:29.441Z,20.50
2017-07-23T02:06:58.436Z,20.50
2017-07-23T02:09:27.384Z,20.60
2017-07-23T02:11:59.443Z,20.60
2017-07-23T02:14:28.394Z,20.50
2017-07-23T02:16:57.453Z,20.20
2017-07-23T02:19:27.187Z,19.50
2017-07-23T02:21:56.217Z,19.40
2017-07-23T02:24:25.176Z,19.10
2017-07-23T02:26:54.160Z,18.80
2017-07-23T02:29:23.120Z,18.50
2017-07-23T02:31:52.914Z,18.30
2017-07-23T02:34:21.869Z,18.30
2017-07-23T02:36:50.829Z,18.20
2017-07-23T02:39:20.593Z,18.20
2017-07-23T02:41:49.564Z,18.20
2017-07-23T02:44:18.514Z,18.20
2017-07-23T02:46:48.261Z,18.20
2017-07-23T02:49:17.463Z,18.10
2017-07-23T02:51:46.520Z,18.10
2017-07-23T02:54:15.485Z,18.20
2017-07-23T02:56:44.432Z,18.30
2017-07-23T02:59:13.497Z,18.30
2017-07-23T03:01:42.442Z,18.30
2017-07-23T03:04:11.432Z,18.30
2017-07-23T03:06:40.406Z,18.30
2017-07-23T03:09:09.384Z,18.30
2017-07-23T03:11:38.663Z,18.40
2017-07-23T03:14:07.819Z,18.50
2017-07-23T03:16:36.791Z,18.50
2017-07-23T03:19:05.786Z,18.50
2017-07-23T03:21:34.760Z,18.50
2017-07-23T03:24:03.699Z,18.50
2017-07-23T03:26:32.633Z,18.40
2017-07-23T03:29:01.599Z,18.50
2017-07-23T03:31:30.573Z,18.50
2017-07-23T03:33:59.529Z,18.60
2017-07-23T03:36:28.578Z,18.60
2017-07-23T03:38:57.534Z,18.60
2017-07-23T03:41:26.486Z,18.60
2017-07-23T03:43:55.436Z,18.50
2017-07-23T03:46:24.420Z,18.40
2017-07-23T03:48:53.368Z,18.40
2017-07-23T03:51:22.352Z,18.20
2017-07-23T03:53:51.319Z,18.20
2017-07-23T03:56:21.060Z,18.30
2017-07-23T03:58:50.134Z,18.30
2017-07-23T04:01:19.082Z,18.30
2017-07-23T04:03:48.025Z,18.40
2017-07-23T04:06:17.764Z,18.40
2017-07-23T04:08:46.715Z,18.40
2017-07-23T04:11:16.450Z,18.30
2017-07-23T04:13:45.397Z,18.30
2017-07-23T04:16:14.408Z,18.30
2017-07-23T04:18:43.347Z,18.20
2017-07-23T04:21:12.336Z,18.20
2017-07-23T04:23:41.291Z,18.50
2017-07-23T04:26:10.318Z,18.50
2017-07-23T04:28:39.259Z,18.50
2017-07-23T04:31:08.209Z,18.20
2017-07-23T04:33:37.183Z,18.30
2017-07-23T04:36:06.149Z,18.20
2017-07-23T04:38:35.956Z,17.90
2017-07-23T04:41:05.672Z,17.90
2017-07-23T04:43:35.455Z,17.80
2017-07-23T04:46:04.430Z,17.80
2017-07-23T04:48:33.379Z,17.80
2017-07-23T04:51:02.456Z,17.80
2017-07-23T04:53:32.261Z,17.90
2017-07-23T04:56:01.393Z,17.90
2017-07-23T04:58:30.349Z,18.00
2017-07-23T05:00:59.393Z,18.10
2017-07-23T05:03:28.365Z,17.90
2017-07-23T05:05:57.360Z,17.90
2017-07-23T05:08:26.314Z,17.90
2017-07-23T05:10:56.047Z,17.80
2017-07-23T05:13:26.251Z,17.80
2017-07-23T05:15:56.062Z,17.70
2017-07-23T05:18:25.055Z,17.70
2017-07-23T05:20:54.869Z,17.50
2017-07-23T05:23:24.594Z,17.50
2017-07-23T05:25:53.567Z,17.40
2017-07-23T05:28:22.531Z,17.50
2017-07-23T05:30:51.520Z,17.50
2017-07-23T05:33:20.507Z,17.60
2017-07-23T05:35:49.539Z,17.60
2017-07-23T05:38:19.352Z,17.50
2017-07-23T05:40:49.096Z,17.40
2017-07-23T05:43:18.055Z,17.40
2017-07-23T05:45:47.837Z,17.60
2017-07-23T05:48:16.883Z,17.50
2017-07-23T05:50:45.875Z,17.50
2017-07-23T05:53:14.819Z,17.50
2017-07-23T05:55:43.873Z,17.50
2017-07-23T05:58:12.925Z,17.40
2017-07-23T06:00:42.677Z,17.20
2017-07-23T06:03:11.746Z,17.20
2017-07-23T06:05:40.837Z,17.20
2017-07-23T06:08:09.862Z,17.20
2017-07-23T06:10:38.853Z,17.10
2017-07-23T06:13:07.981Z,17.10
2017-07-23T06:15:37.026Z,17.20
2017-07-23T06:18:06.000Z,17.20
2017-07-23T06:20:34.959Z,17.30
2017-07-23T06:23:03.954Z,17.30
2017-07-23T06:25:32.920Z,17.30
2017-07-23T06:28:01.885Z,17.30
2017-07-23T06:30:30.881Z,17.40
2017-07-23T06:32:59.848Z,17.40
2017-07-23T06:35:29.614Z,17.80
2017-07-23T06:37:58.586Z,17.70
2017-07-23T06:40:27.569Z,17.80
2017-07-23T06:42:56.532Z,18.00
2017-07-23T06:45:26.296Z,18.00
2017-07-23T06:47:55.244Z,18.00
2017-07-23T06:50:27.435Z,18.20
2017-07-23T06:52:59.284Z,18.40
2017-07-23T06:55:28.264Z,18.40
2017-07-23T06:57:57.241Z,18.20
2017-07-23T07:00:29.870Z,18.20
2017-07-23T07:02:58.959Z,18.20
2017-07-23T07:05:27.926Z,18.40
2017-07-23T07:07:56.883Z,18.40
2017-07-23T07:10:26.653Z,18.70
2017-07-23T07:12:55.635Z,18.70
2017-07-23T07:15:24.648Z,18.90
2017-07-23T07:17:53.635Z,19.00
2017-07-23T07:20:22.622Z,19.20
2017-07-23T07:22:51.599Z,19.50
2017-07-23T07:25:20.580Z,19.70
2017-07-23T07:27:49.537Z,19.60
2017-07-23T07:30:19.495Z,19.30
2017-07-23T07:32:48.518Z,19.30
2017-07-23T07:35:17.534Z,19.20
2017-07-23T07:37:46.503Z,19.20
2017-07-23T07:40:15.534Z,19.10
2017-07-23T07:42:45.272Z,19.00
2017-07-23T07:45:14.242Z,18.90
2017-07-23T07:47:43.987Z,18.90
2017-07-23T07:50:13.098Z,18.90
2017-07-23T07:52:42.136Z,19.20
2017-07-23T07:55:11.872Z,19.70
2017-07-23T07:57:40.843Z,19.70
2017-07-23T08:00:09.816Z,19.70
2017-07-23T08:02:39.557Z,19.20
2017-07-23T08:05:08.583Z,19.20
2017-07-23T08:07:37.558Z,19.40
2017-07-23T08:10:06.550Z,19.60
2017-07-23T08:12:35.513Z,20.00
2017-07-23T08:15:04.476Z,20.20
2017-07-23T08:17:33.462Z,19.90
2017-07-23T08:20:02.470Z,19.80
2017-07-23T08:22:31.429Z,19.80
2017-07-23T08:25:00.452Z,19.70
2017-07-23T08:27:29.410Z,19.50
2017-07-23T08:29:58.394Z,19.60
2017-07-23T08:32:27.340Z,19.80
2017-07-23T08:34:56.317Z,19.70
2017-07-23T08:37:25.254Z,19.70
2017-07-23T08:39:54.335Z,19.70
2017-07-23T08:42:23.287Z,20.00
2017-07-23T08:44:52.220Z,20.00
2017-07-23T08:47:21.198Z,20.00
2017-07-23T08:49:50.254Z,19.90
2017-07-23T08:52:19.187Z,19.70
2017-07-23T08:54:49.959Z,20.00
2017-07-23T08:57:30.268Z,20.30
2017-07-23T08:59:59.248Z,20.40
2017-07-23T09:02:28.221Z,20.20
2017-07-23T09:04:57.175Z,19.80
2017-07-23T09:07:26.120Z,19.60
2017-07-23T09:09:55.886Z,19.60
2017-07-23T09:12:24.895Z,19.60
2017-07-23T09:14:53.868Z,19.60
2017-07-23T09:17:22.857Z,19.50
2017-07-23T09:19:51.825Z,19.40
2017-07-23T09:22:20.803Z,19.50
2017-07-23T09:24:50.509Z,19.80
2017-07-23T09:27:19.471Z,19.80
2017-07-23T09:29:48.417Z,19.80
2017-07-23T09:32:17.405Z,20.00
2017-07-23T09:34:46.372Z,19.90
2017-07-23T09:37:15.355Z,20.00
2017-07-23T09:39:44.289Z,19.90
2017-07-23T09:42:13.266Z,19.80
2017-07-23T09:44:42.232Z,19.80
2017-07-23T09:47:11.195Z,19.80
2017-07-23T09:49:40.166Z,19.70
2017-07-23T09:52:09.182Z,19.80
2017-07-23T09:54:38.144Z,19.90
2017-07-23T09:57:07.126Z,19.90
2017-07-23T09:59:36.084Z,19.90
2017-07-23T10:02:05.073Z,20.10
2017-07-23T10:04:34.034Z,20.40
2017-07-23T10:07:03.222Z,20.40
2017-07-23T10:09:32.203Z,20.60
2017-07-23T10:12:01.179Z,20.90
2017-07-23T10:14:30.141Z,20.90
2017-07-23T10:16:59.176Z,20.70
2017-07-23T10:19:28.133Z,20.80
2017-07-23T10:21:57.088Z,21.10
2017-07-23T10:24:26.082Z,21.20
2017-07-23T10:26:55.068Z,21.30
2017-07-23T10:29:24.013Z,21.10
2017-07-23T10:31:52.952Z,21.00
2017-07-23T10:34:21.984Z,20.80
2017-07-23T10:36:51.341Z,20.60
2017-07-23T10:39:21.216Z,19.70
2017-07-23T10:41:50.954Z,17.60
2017-07-23T10:44:19.970Z,16.30
2017-07-23T10:46:48.956Z,15.90
2017-07-23T10:49:17.949Z,15.90
2017-07-23T10:51:46.943Z,16.00
2017-07-23T10:56:51.966Z,16.30
2017-07-23T10:59:20.955Z,16.30
2017-07-23T11:01:49.994Z,16.50
2017-07-23T11:04:19.075Z,16.70
2017-07-23T11:06:48.066Z,17.00
2017-07-23T11:09:17.009Z,17.40
2017-07-23T11:11:45.952Z,17.70
2017-07-23T11:14:15.027Z,18.20
2017-07-23T11:16:43.976Z,18.70
2017-07-23T11:19:13.000Z,19.30
2017-07-23T11:21:41.972Z,19.80
2017-07-23T11:24:11.104Z,20.20
2017-07-23T11:26:40.079Z,20.40
2017-07-23T11:29:09.102Z,20.70
2017-07-23T11:31:38.087Z,21.00
2017-07-23T11:34:07.071Z,21.60
2017-07-23T11:36:36.046Z,22.30
2017-07-23T11:39:05.012Z,22.90
2017-07-23T11:41:33.975Z,23.10
2017-07-23T11:44:02.945Z,22.80
2017-07-23T11:46:32.018Z,22.00
2017-07-23T11:49:01.614Z,21.40
2017-07-23T11:51:30.570Z,21.70
2017-07-23T11:54:01.495Z,22.30
2017-07-23T11:56:30.772Z,22.40
2017-07-23T11:58:59.774Z,22.20
2017-07-23T12:01:35.704Z,21.50
2017-07-23T12:04:04.681Z,21.70
2017-07-23T12:06:33.628Z,21.80
2017-07-23T12:09:04.513Z,22.20
2017-07-23T12:11:33.871Z,22.80
2017-07-23T12:14:03.815Z,23.20
2017-07-23T12:16:32.767Z,23.80
2017-07-23T12:19:06.408Z,24.90
2017-07-23T12:21:41.274Z,24.50
2017-07-23T12:24:19.478Z,23.60
2017-07-23T12:26:55.450Z,23.50
2017-07-23T12:29:24.448Z,23.60
2017-07-23T12:31:53.403Z,23.80
2017-07-23T12:34:22.404Z,24.40
2017-07-23T12:36:52.121Z,23.30
2017-07-23T12:39:21.119Z,23.30
2017-07-23T12:41:50.197Z,22.90
2017-07-23T12:44:19.168Z,22.50
2017-07-23T12:46:48.162Z,22.20
2017-07-23T12:49:17.153Z,21.70
2017-07-23T12:51:46.107Z,21.30
2017-07-23T12:54:15.141Z,20.90
2017-07-23T12:56:44.093Z,20.90
2017-07-23T12:59:13.095Z,20.90
2017-07-23T13:01:42.038Z,21.10
2017-07-23T13:04:11.017Z,21.30
2017-07-23T13:06:40.057Z,21.50
2017-07-23T13:09:09.141Z,22.10
2017-07-23T13:11:38.118Z,23.00
2017-07-23T13:14:07.074Z,24.20
2017-07-23T13:16:36.080Z,24.30
2017-07-23T13:19:05.080Z,24.30
2017-07-23T13:21:34.033Z,23.40
2017-07-23T13:24:03.025Z,22.60
2017-07-23T13:26:31.988Z,22.10
2017-07-23T13:29:00.961Z,21.70
2017-07-23T13:31:30.695Z,21.90
2017-07-23T13:33:59.672Z,21.90
2017-07-23T13:36:28.804Z,23.20
2017-07-23T13:38:57.847Z,23.50
2017-07-23T13:41:28.247Z,24.00
2017-07-23T13:43:57.247Z,23.90
2017-07-23T13:46:26.202Z,23.10
2017-07-23T13:48:55.177Z,22.30
2017-07-23T13:51:24.166Z,21.80
2017-07-23T13:53:53.140Z,21.90
2017-07-23T13:56:22.105Z,21.70
2017-07-23T13:58:51.077Z,21.60
2017-07-23T14:01:20.041Z,21.60
2017-07-23T14:03:49.025Z,21.40
2017-07-23T14:06:17.972Z,21.20
2017-07-23T14:08:46.952Z,21.20
2017-07-23T14:11:15.936Z,21.10
2017-07-23T14:13:44.921Z,20.70
2017-07-23T14:16:13.905Z,20.80
2017-07-23T14:18:42.889Z,21.00
2017-07-23T14:21:11.847Z,21.40
2017-07-23T14:23:40.877Z,22.20
2017-07-23T14:26:09.844Z,22.40
2017-07-23T14:28:38.796Z,22.00
2017-07-23T14:31:07.792Z,21.30
2017-07-23T14:33:36.736Z,20.60
2017-07-23T14:36:05.725Z,20.10
2017-07-23T14:38:34.690Z,20.10
2017-07-23T14:41:04.448Z,20.00
2017-07-23T14:43:33.453Z,20.00
2017-07-23T14:46:02.408Z,19.90
2017-07-23T14:48:31.412Z,19.70
2017-07-23T14:51:00.439Z,19.80
2017-07-23T14:53:29.603Z,19.90
2017-07-23T14:55:58.577Z,20.30
2017-07-23T14:58:27.527Z,20.40
2017-07-23T15:00:56.487Z,20.50
2017-07-23T15:03:25.461Z,20.50
2017-07-23T15:05:54.428Z,20.30
2017-07-23T15:08:24.198Z,19.90
2017-07-23T15:10:53.149Z,19.90
2017-07-23T15:13:22.110Z,19.70
2017-07-23T15:15:51.865Z,19.90
2017-07-23T15:18:21.094Z,19.80
2017-07-23T15:20:50.033Z,19.90
2017-07-23T15:23:19.025Z,19.90
2017-07-23T15:25:48.821Z,19.70
2017-07-23T15:28:18.573Z,19.50
2017-07-23T15:30:47.511Z,19.50
2017-07-23T15:33:17.249Z,19.10
2017-07-23T15:35:46.209Z,19.10
2017-07-23T15:38:15.171Z,19.00
2017-07-23T15:40:44.149Z,18.90
2017-07-23T15:43:13.165Z,18.90
2017-07-23T15:45:42.116Z,19.00
2017-07-23T15:48:11.081Z,19.20
2017-07-23T15:50:40.886Z,19.60
2017-07-23T15:53:09.845Z,19.60
2017-07-23T15:55:38.834Z,19.90
2017-07-23T15:58:07.780Z,20.20
2017-07-23T16:00:36.765Z,20.10
2017-07-23T16:03:05.813Z,20.10
2017-07-23T16:05:34.792Z,20.20
2017-07-23T16:08:03.738Z,20.10
2017-07-23T16:10:33.501Z,20.10
2017-07-23T16:13:02.726Z,20.10
2017-07-23T16:15:31.672Z,20.10
2017-07-23T16:18:00.662Z,20.40
2017-07-23T16:20:29.646Z,20.40
2017-07-23T16:22:58.665Z,20.40
2017-07-23T16:25:27.649Z,20.30
2017-07-23T16:27:56.604Z,20.40
2017-07-23T16:30:25.588Z,20.40
2017-07-23T16:32:55.441Z,20.40
2017-07-23T16:35:24.412Z,20.30
2017-07-23T16:37:53.386Z,20.10
2017-07-23T16:40:22.412Z,19.90
2017-07-23T16:42:51.356Z,19.80
2017-07-23T16:45:20.364Z,19.70
2017-07-23T16:47:50.117Z,19.80
2017-07-23T16:50:19.058Z,19.80
2017-07-23T16:52:48.040Z,20.00
2017-07-23T16:55:17.026Z,20.10
2017-07-23T16:57:45.989Z,20.00
2017-07-23T17:00:14.949Z,20.10
2017-07-23T17:02:43.926Z,20.20
2017-07-23T17:05:13.662Z,20.50
2017-07-23T17:07:42.702Z,20.50
2017-07-23T17:10:11.651Z,20.40
2017-07-23T17:12:40.604Z,20.30
2017-07-23T17:15:09.562Z,20.20
2017-07-23T17:17:38.596Z,20.10
2017-07-23T17:20:08.322Z,19.70
2017-07-23T17:22:37.315Z,19.60
2017-07-23T17:25:06.806Z,19.60
2017-07-23T17:27:36.597Z,19.50
2017-07-23T17:30:05.551Z,19.50
2017-07-23T17:32:34.509Z,19.40
2017-07-23T17:35:04.254Z,19.40
2017-07-23T17:37:33.235Z,19.40
2017-07-23T17:40:02.200Z,19.50
2017-07-23T17:42:31.995Z,19.60
2017-07-23T17:45:01.091Z,19.60
2017-07-23T17:47:30.055Z,19.60
2017-07-23T17:49:59.039Z,19.40
2017-07-23T17:52:27.998Z,19.40
2017-07-23T17:54:56.975Z,19.40
2017-07-23T17:57:26.870Z,19.40
2017-07-23T17:59:55.809Z,19.40
2017-07-23T18:02:24.786Z,19.20
2017-07-23T18:04:53.742Z,19.20
2017-07-23T18:07:22.826Z,19.20
2017-07-23T18:09:51.778Z,19.20
2017-07-23T18:12:20.775Z,19.00
2017-07-23T18:14:49.734Z,18.80
2017-07-23T18:17:18.742Z,18.40
2017-07-23T18:19:47.790Z,18.00
2017-07-23T18:22:16.754Z,17.70
2017-07-23T18:24:45.732Z,17.50
2017-07-23T18:27:14.758Z,17.20
2017-07-23T18:29:43.762Z,17.00
2017-07-23T18:32:12.722Z,16.80
2017-07-23T18:34:41.791Z,16.80
2017-07-23T18:37:10.759Z,17.00
2017-07-23T18:39:39.758Z,17.10
2017-07-23T18:42:09.524Z,17.00
2017-07-23T18:44:38.523Z,17.00
2017-07-23T18:47:07.475Z,17.10
2017-07-23T18:49:36.467Z,17.20
2017-07-23T18:52:05.432Z,17.00
2017-07-23T18:54:34.568Z,17.10
2017-07-23T18:57:03.527Z,17.30
2017-07-23T18:59:33.307Z,17.30
2017-07-23T19:02:02.312Z,17.30
2017-07-23T19:04:31.384Z,17.10
2017-07-23T19:07:01.811Z,17.00
2017-07-23T19:09:30.769Z,17.10
2017-07-23T19:12:00.553Z,17.20
2017-07-23T19:14:29.557Z,17.20
2017-07-23T19:16:58.564Z,17.20
2017-07-23T19:19:27.531Z,17.00
2017-07-23T19:21:58.907Z,16.90
2017-07-23T19:24:28.638Z,16.90
2017-07-23T19:26:58.384Z,16.90
2017-07-23T19:29:27.336Z,17.10
2017-07-23T19:31:56.954Z,17.10
2017-07-23T19:34:25.938Z,17.10
2017-07-23T19:36:54.932Z,17.00
2017-07-23T19:39:23.918Z,17.10
2017-07-23T19:41:52.882Z,17.20
2017-07-23T19:44:21.879Z,17.20
2017-07-23T19:46:50.913Z,17.10
2017-07-23T19:49:19.874Z,17.10
2017-07-23T19:51:49.826Z,17.10
2017-07-23T19:54:18.775Z,17.10
2017-07-23T19:56:47.756Z,17.00
2017-07-23T19:59:16.734Z,17.00
2017-07-23T20:01:46.172Z,16.90
2017-07-23T20:04:15.783Z,16.80
2017-07-23T20:06:44.892Z,16.80
2017-07-23T20:09:13.957Z,16.70
2017-07-23T20:11:43.436Z,16.60
2017-07-23T20:14:12.441Z,16.40
2017-07-23T20:16:41.475Z,16.40
2017-07-23T20:19:10.483Z,16.50
2017-07-23T20:21:41.023Z,16.50
2017-07-23T20:27:30.006Z,16.30
2017-07-23T20:29:59.008Z,16.20
2017-07-23T20:32:28.786Z,16.20
2017-07-23T20:34:57.744Z,16.10
2017-07-23T20:37:26.879Z,16.20
2017-07-23T20:39:55.839Z,16.30
2017-07-23T20:42:24.831Z,16.30
2017-07-23T20:44:53.774Z,16.20
2017-07-23T20:47:23.546Z,16.30
2017-07-23T20:49:53.222Z,16.30
2017-07-23T20:52:22.313Z,16.20
2017-07-23T20:54:51.288Z,16.40
2017-07-23T20:57:20.226Z,16.30
2017-07-23T20:59:49.196Z,16.30
2017-07-23T21:02:18.175Z,16.20
2017-07-23T21:04:47.908Z,16.20
2017-07-23T21:07:16.898Z,16.20
2017-07-23T21:09:46.213Z,16.30
2017-07-23T21:12:15.199Z,16.30
2017-07-23T21:14:44.182Z,16.50
2017-07-23T21:17:13.121Z,16.50
2017-07-23T21:19:42.063Z,16.30
2017-07-23T21:22:11.018Z,16.20
2017-07-23T21:24:39.996Z,16.30
2017-07-23T21:27:08.942Z,16.20
2017-07-23T21:29:37.924Z,16.20
2017-07-23T21:32:06.995Z,16.10
2017-07-23T21:34:35.984Z,16.10
2017-07-23T21:37:04.950Z,16.10
2017-07-23T21:39:33.906Z,16.20
2017-07-23T21:42:02.906Z,16.30
2017-07-23T21:44:31.857Z,16.30
2017-07-23T21:47:00.808Z,16.30
2017-07-23T21:49:30.595Z,16.00
2017-07-23T21:51:59.576Z,16.00
2017-07-23T21:54:28.524Z,15.80
2017-07-23T21:56:57.477Z,15.70
2017-07-23T21:59:26.465Z,15.80
2017-07-23T22:01:55.445Z,15.90
2017-07-23T22:04:24.416Z,15.80
2017-07-23T22:06:53.356Z,15.80
2017-07-23T22:09:22.334Z,15.80
2017-07-23T22:11:51.315Z,15.80
2017-07-23T22:14:20.264Z,15.80
2017-07-23T22:16:49.185Z,15.70
2017-07-23T22:19:18.160Z,15.80
2017-07-23T22:21:47.527Z,15.80
2017-07-23T22:24:16.476Z,15.70
2017-07-23T22:26:45.426Z,15.70
2017-07-23T22:29:14.409Z,15.70
2017-07-23T22:31:43.348Z,15.80
2017-07-23T22:34:12.309Z,15.70
2017-07-23T22:36:41.272Z,15.70
2017-07-23T22:39:10.231Z,15.70
2017-07-23T22:41:39.224Z,15.80
2017-07-23T22:44:08.184Z,15.70
2017-07-23T22:46:37.132Z,15.70
2017-07-23T22:49:06.879Z,15.60
2017-07-23T22:51:35.919Z,15.60
2017-07-23T22:54:04.847Z,15.60
2017-07-23T22:56:33.843Z,15.60
2017-07-23T22:59:02.787Z,15.50
2017-07-23T23:01:31.759Z,15.50
2017-07-23T23:04:00.738Z,15.50
2017-07-23T23:06:29.734Z,15.40
2017-07-23T23:08:58.736Z,15.40
2017-07-23T23:11:27.766Z,15.40
2017-07-23T23:13:57.272Z,15.50
2017-07-23T23:16:26.245Z,15.40
2017-07-23T23:18:55.363Z,15.30
2017-07-23T23:21:24.320Z,15.20
2017-07-23T23:23:53.298Z,15.30
2017-07-23T23:26:22.282Z,15.30
2017-07-23T23:28:51.291Z,15.30
2017-07-23T23:31:21.396Z,15.30
2017-07-23T23:33:50.361Z,15.20
2017-07-23T23:36:19.302Z,15.20
2017-07-23T23:38:48.357Z,15.10
2017-07-23T23:41:17.328Z,15.00
2017-07-23T23:43:47.109Z,15.00
2017-07-23T23:46:16.055Z,14.90
2017-07-23T23:48:45.002Z,15.00
2017-07-23T23:51:13.973Z,15.10
2017-07-23T23:53:42.966Z,14.90
2017-07-23T23:56:12.661Z,15.00
2017-07-23T23:58:41.753Z,15.00
